Terminal Aerodrome Forecast
Issued by NWS

Home | Current Version | Previous Version | Text Only | Print | Product List | Glossary On
Versions: 1 2 3 4 5 6 7 8 9 10 11 12
000
FTUS44 KBMX 281120
TAFEET
TAF
KEET 281120Z 2812/2912 13004KT P6SM VCSH SCT060 BKN150
      TEMPO 2814/2818 6SM -RA BKN060
     FM281800 15007KT P6SM SCT045 BKN200
     FM290200 00000KT P6SM BKN250=

USA.gov is the U.S. government's official web portal to all federal, state and local government web resources and services.